createdAt,value
2023-02-21T00:00:30.331Z,9.74
2023-02-21T00:01:51.613Z,9.75
2023-02-21T00:03:13.310Z,9.75
2023-02-21T00:04:35.018Z,9.75
2023-02-21T00:05:56.653Z,9.85
2023-02-21T00:07:18.234Z,9.85
2023-02-21T00:08:39.705Z,9.82
2023-02-21T00:10:01.433Z,9.85
2023-02-21T00:11:24.043Z,9.85
2023-02-21T00:12:45.613Z,9.84
2023-02-21T00:14:07.196Z,9.86
2023-02-21T00:15:29.892Z,9.81
2023-02-21T00:16:51.495Z,9.75
2023-02-21T00:18:13.085Z,9.74
2023-02-21T00:19:35.769Z,9.78
2023-02-21T00:20:57.608Z,9.79
2023-02-21T00:22:19.331Z,9.84
2023-02-21T00:23:41.051Z,9.91
2023-02-21T00:25:02.541Z,9.90
2023-02-21T00:26:24.741Z,9.88
2023-02-21T00:27:46.696Z,9.92
2023-02-21T00:29:08.302Z,9.98
2023-02-21T00:30:30.639Z,10.09
2023-02-21T00:31:52.593Z,10.06
2023-02-21T00:33:14.666Z,10.05
2023-02-21T00:34:35.667Z,10.04
2023-02-21T00:35:56.786Z,10.22
2023-02-21T00:37:18.165Z,10.05
2023-02-21T00:38:39.392Z,10.22
2023-02-21T00:40:00.758Z,10.23
2023-02-21T00:41:22.286Z,10.10
2023-02-21T00:42:43.888Z,10.09
2023-02-21T00:44:05.924Z,10.09
2023-02-21T00:45:27.089Z,10.07
2023-02-21T00:46:48.165Z,10.06
2023-02-21T00:48:09.287Z,10.09
2023-02-21T00:49:30.537Z,10.08
2023-02-21T00:50:51.898Z,10.08
2023-02-21T00:52:13.661Z,9.99
2023-02-21T00:53:34.870Z,10.00
2023-02-21T00:54:56.017Z,10.00
2023-02-21T00:56:16.985Z,9.91
2023-02-21T00:57:38.101Z,10.00
2023-02-21T00:58:59.223Z,9.90
2023-02-21T01:00:20.269Z,9.86
2023-02-21T01:01:41.215Z,9.92
2023-02-21T01:03:03.671Z,9.88
2023-02-21T01:04:25.710Z,9.87
2023-02-21T01:05:47.384Z,9.87
2023-02-21T01:07:10.072Z,9.85
2023-02-21T01:08:31.552Z,9.82
2023-02-21T01:09:52.788Z,9.87
2023-02-21T01:11:14.738Z,9.84
2023-02-21T01:12:37.439Z,9.86
2023-02-21T01:13:58.437Z,9.86
2023-02-21T01:15:19.073Z,9.91
2023-02-21T01:16:41.405Z,9.83
2023-02-21T01:18:02.164Z,9.91
2023-02-21T01:19:23.399Z,9.82
2023-02-21T01:20:44.998Z,9.78
2023-02-21T01:22:06.119Z,9.77
2023-02-21T01:23:27.362Z,9.77
2023-02-21T01:24:48.243Z,9.79
2023-02-21T01:26:09.364Z,9.77
2023-02-21T01:27:30.484Z,9.77
2023-02-21T01:28:51.602Z,9.77
2023-02-21T01:30:13.001Z,9.72
2023-02-21T01:31:40.926Z,9.79
2023-02-21T01:33:02.049Z,9.74
2023-02-21T01:34:23.305Z,9.76
2023-02-21T01:35:44.540Z,9.74
2023-02-21T01:37:05.656Z,9.75
2023-02-21T01:38:26.780Z,9.78
2023-02-21T01:39:47.662Z,9.79
2023-02-21T01:41:09.030Z,9.74
2023-02-21T01:42:30.262Z,9.71
2023-02-21T01:43:51.629Z,9.77
2023-02-21T01:46:03.208Z,9.75
2023-02-21T01:47:24.633Z,9.71
2023-02-21T01:48:47.554Z,9.74
2023-02-21T01:50:08.553Z,9.71
2023-02-21T01:51:30.518Z,9.74
2023-02-21T01:52:51.784Z,9.70
2023-02-21T01:54:14.442Z,9.70
2023-02-21T01:55:35.684Z,9.69
2023-02-21T01:56:58.007Z,9.66
2023-02-21T01:58:19.608Z,9.70
2023-02-21T01:59:42.805Z,9.69
2023-02-21T02:01:04.616Z,9.65
2023-02-21T02:02:34.858Z,9.67
2023-02-21T02:03:57.788Z,9.60
2023-02-21T02:05:21.180Z,9.65
2023-02-21T02:06:45.424Z,9.59
2023-02-21T02:08:07.623Z,9.60
2023-02-21T02:09:37.388Z,9.63
2023-02-21T02:10:59.949Z,9.55
2023-02-21T02:12:23.838Z,9.63
2023-02-21T02:13:45.192Z,9.62
2023-02-21T02:15:00.606Z,9.56
2023-02-21T02:16:19.275Z,9.65
2023-02-21T02:17:37.167Z,9.64
2023-02-21T02:19:15.334Z,9.53
2023-02-21T02:20:55.284Z,9.67
2023-02-21T02:22:13.885Z,9.58
2023-02-21T02:23:55.773Z,9.56
2023-02-21T02:25:32.013Z,9.57
2023-02-21T02:27:13.654Z,9.58
2023-02-21T02:28:39.217Z,9.57
2023-02-21T02:29:48.342Z,9.64
2023-02-21T02:31:29.353Z,9.62
2023-02-21T02:32:38.982Z,9.57
2023-02-21T02:34:28.428Z,9.61
2023-02-21T02:35:49.548Z,9.62
2023-02-21T02:37:10.213Z,9.62
2023-02-21T02:38:56.153Z,9.61
2023-02-21T02:40:16.915Z,9.59
2023-02-21T02:41:34.437Z,9.62
2023-02-21T02:42:40.023Z,9.60
2023-02-21T02:43:51.536Z,9.63
2023-02-21T02:45:01.375Z,9.68
2023-02-21T02:46:20.089Z,9.65
2023-02-21T02:47:27.365Z,9.63
2023-02-21T02:48:47.647Z,9.61
2023-02-21T02:49:52.496Z,9.59
2023-02-21T02:50:56.416Z,9.57
2023-02-21T02:52:08.337Z,9.62
2023-02-21T02:53:10.976Z,9.52
2023-02-21T02:54:15.422Z,9.49
2023-02-21T02:55:43.343Z,9.57
2023-02-21T02:56:47.462Z,9.48
2023-02-21T02:57:51.298Z,9.48
2023-02-21T02:59:01.739Z,9.48
2023-02-21T03:00:06.551Z,9.52
2023-02-21T03:01:47.010Z,9.52
2023-02-21T03:02:52.958Z,9.54
2023-02-21T03:04:11.462Z,9.50
2023-02-21T03:05:33.664Z,9.52
2023-02-21T03:07:02.117Z,9.46
2023-02-21T03:08:13.988Z,9.42
2023-02-21T03:09:25.173Z,9.43
2023-02-21T03:11:02.257Z,9.53
2023-02-21T03:12:26.587Z,9.44
2023-02-21T03:13:49.992Z,9.42
2023-02-21T03:14:58.747Z,9.41
2023-02-21T03:16:05.361Z,9.35
2023-02-21T03:17:16.389Z,9.39
2023-02-21T03:18:25.394Z,9.42
2023-02-21T03:19:39.074Z,9.44
2023-02-21T03:20:44.005Z,9.41
2023-02-21T03:21:58.153Z,9.42
2023-02-21T03:23:03.439Z,9.43
2023-02-21T03:24:08.475Z,9.40
2023-02-21T03:25:12.196Z,9.43
2023-02-21T03:26:16.526Z,9.39
2023-02-21T03:27:23.356Z,9.39
2023-02-21T03:28:34.405Z,9.35
2023-02-21T03:29:38.236Z,9.33
2023-02-21T03:30:42.563Z,9.37
2023-02-21T03:31:52.472Z,9.43
2023-02-21T03:32:56.359Z,9.41
2023-02-21T03:34:00.202Z,9.41
2023-02-21T03:35:04.523Z,9.40
2023-02-21T03:36:09.442Z,9.36
2023-02-21T03:37:41.126Z,9.45
2023-02-21T03:38:44.967Z,9.35
2023-02-21T03:39:47.852Z,9.35
2023-02-21T03:40:50.849Z,9.41
2023-02-21T03:41:53.733Z,9.37
2023-02-21T03:42:58.305Z,9.41
2023-02-21T03:44:02.499Z,9.38
2023-02-21T03:45:05.376Z,9.37
2023-02-21T03:46:08.619Z,9.33
2023-02-21T03:47:11.980Z,9.37
2023-02-21T03:48:20.162Z,9.37
2023-02-21T03:49:26.987Z,9.47
2023-02-21T03:50:29.754Z,9.47
2023-02-21T03:51:32.627Z,9.50
2023-02-21T03:52:36.350Z,9.41
2023-02-21T03:53:39.121Z,9.36
2023-02-21T03:54:43.452Z,9.36
2023-02-21T03:55:50.760Z,9.33
2023-02-21T03:56:58.919Z,9.37
2023-02-21T03:58:04.800Z,9.42
2023-02-21T03:59:09.610Z,9.42
2023-02-21T04:00:14.887Z,9.40
2023-02-21T04:01:25.840Z,9.37
2023-02-21T04:02:30.861Z,9.40
2023-02-21T04:03:33.865Z,9.41
2023-02-21T04:04:39.736Z,9.42
2023-02-21T04:05:45.016Z,9.42
2023-02-21T04:06:48.136Z,9.42
2023-02-21T04:07:51.259Z,9.47
2023-02-21T04:08:54.381Z,9.44
2023-02-21T04:10:00.094Z,9.43
2023-02-21T04:11:13.538Z,9.42
2023-02-21T04:12:18.268Z,9.41
2023-02-21T04:13:24.027Z,9.44
2023-02-21T04:14:27.870Z,9.47
2023-02-21T04:15:31.233Z,9.46
2023-02-21T04:16:34.376Z,9.47
2023-02-21T04:17:37.606Z,9.52
2023-02-21T04:18:41.918Z,9.47
2023-02-21T04:19:46.602Z,9.57
2023-02-21T04:20:49.854Z,9.61
2023-02-21T04:21:55.006Z,9.54
2023-02-21T04:23:03.487Z,9.46
2023-02-21T04:24:08.210Z,9.47
2023-02-21T04:25:12.046Z,9.52
2023-02-21T04:26:23.698Z,9.54
2023-02-21T04:27:27.659Z,9.56
2023-02-21T04:28:32.933Z,9.62
2023-02-21T04:29:36.295Z,9.62
2023-02-21T04:30:39.748Z,9.61
2023-02-21T04:31:43.083Z,9.55
2023-02-21T04:32:51.062Z,9.54
2023-02-21T04:34:05.843Z,9.61
2023-02-21T04:35:14.347Z,9.62
2023-02-21T04:36:19.030Z,9.61
2023-02-21T04:37:21.791Z,9.61
2023-02-21T04:38:24.799Z,9.59
2023-02-21T04:39:27.914Z,9.60
2023-02-21T04:40:31.153Z,9.60
2023-02-21T04:41:35.126Z,9.56
2023-02-21T04:42:38.363Z,9.58
2023-02-21T04:43:43.406Z,9.59
2023-02-21T04:44:55.008Z,9.58
2023-02-21T04:46:02.581Z,9.58
2023-02-21T04:47:05.425Z,9.55
2023-02-21T04:48:08.128Z,9.56
2023-02-21T04:49:12.933Z,9.68
2023-02-21T04:50:15.498Z,9.61
2023-02-21T04:51:22.051Z,9.68
2023-02-21T04:52:24.934Z,9.52
2023-02-21T04:53:27.506Z,9.62
2023-02-21T04:54:30.098Z,9.59
2023-02-21T04:55:32.626Z,9.58
2023-02-21T04:56:35.321Z,9.64
2023-02-21T04:57:37.942Z,9.65
2023-02-21T04:58:46.006Z,9.65
2023-02-21T04:59:49.078Z,9.62
2023-02-21T05:00:51.636Z,9.70
2023-02-21T05:01:54.505Z,9.64
2023-02-21T05:02:57.265Z,9.58
2023-02-21T05:04:00.566Z,9.43
2023-02-21T05:05:03.446Z,9.43
2023-02-21T05:06:06.516Z,9.39
2023-02-21T05:07:09.124Z,9.37
2023-02-21T05:08:11.673Z,9.50
2023-02-21T05:09:14.195Z,9.40
2023-02-21T05:10:17.789Z,9.40
2023-02-21T05:11:21.484Z,9.39
2023-02-21T05:12:24.151Z,9.40
2023-02-21T05:13:27.033Z,9.43
2023-02-21T05:14:29.553Z,9.41
2023-02-21T05:15:32.214Z,9.39
2023-02-21T05:16:34.752Z,9.36
2023-02-21T05:17:37.359Z,9.41
2023-02-21T05:18:42.640Z,9.39
2023-02-21T05:19:47.207Z,9.40
2023-02-21T05:20:50.318Z,9.35
2023-02-21T05:21:57.296Z,9.35
2023-02-21T05:23:08.221Z,9.38
2023-02-21T05:24:15.758Z,9.38
2023-02-21T05:25:22.239Z,9.38
2023-02-21T05:26:33.280Z,9.33
2023-02-21T05:27:35.926Z,9.31
2023-02-21T05:28:39.897Z,9.32
2023-02-21T05:29:46.361Z,9.33
2023-02-21T05:30:48.954Z,9.38
2023-02-21T05:31:51.794Z,9.34
2023-02-21T05:32:54.653Z,9.41
2023-02-21T05:33:58.258Z,9.42
2023-02-21T05:35:00.961Z,9.40
2023-02-21T05:36:03.647Z,9.44
2023-02-21T05:37:06.165Z,9.33
2023-02-21T05:38:08.576Z,9.40
2023-02-21T05:39:11.387Z,9.45
2023-02-21T05:40:18.182Z,9.48
2023-02-21T05:41:21.172Z,9.42
2023-02-21T05:42:23.693Z,9.48
2023-02-21T05:43:28.732Z,9.42
2023-02-21T05:44:31.618Z,9.47
2023-02-21T05:45:34.155Z,9.49
2023-02-21T05:46:36.662Z,9.48
2023-02-21T05:47:39.304Z,9.43
2023-02-21T05:48:41.827Z,9.42
2023-02-21T05:49:44.707Z,9.45
2023-02-21T05:50:47.472Z,9.49
2023-02-21T05:51:49.994Z,9.50
2023-02-21T05:52:53.367Z,9.46
2023-02-21T05:53:55.883Z,9.48
2023-02-21T05:54:58.771Z,9.50
2023-02-21T05:56:01.397Z,9.52
2023-02-21T05:57:04.767Z,9.53
2023-02-21T05:58:07.642Z,9.55
2023-02-21T05:59:11.362Z,9.60
2023-02-21T06:00:17.846Z,9.66
2023-02-21T06:01:20.845Z,9.53
2023-02-21T06:02:23.873Z,9.54
2023-02-21T06:03:26.911Z,9.60
2023-02-21T06:04:29.967Z,9.60
2023-02-21T06:05:33.091Z,9.61
2023-02-21T06:06:36.690Z,9.62
2023-02-21T06:07:39.813Z,9.61
2023-02-21T06:08:47.744Z,9.65
2023-02-21T06:09:50.855Z,9.61
2023-02-21T06:10:53.976Z,9.54
2023-02-21T06:11:57.816Z,9.61
2023-02-21T06:13:00.942Z,9.56
2023-02-21T06:14:06.700Z,9.46
2023-02-21T06:15:10.072Z,9.43
2023-02-21T06:16:13.385Z,9.43
2023-02-21T06:17:16.546Z,9.45
2023-02-21T06:18:19.674Z,9.41
2023-02-21T06:19:22.910Z,9.42
2023-02-21T06:20:26.029Z,9.40
2023-02-21T06:21:29.391Z,9.43
2023-02-21T06:22:32.752Z,9.44
2023-02-21T06:23:35.877Z,9.43
2023-02-21T06:24:39.116Z,9.41
2023-02-21T06:25:42.488Z,9.54
2023-02-21T06:26:45.725Z,9.56
2023-02-21T06:27:49.926Z,9.50
2023-02-21T06:28:53.530Z,9.57
2023-02-21T06:29:57.007Z,9.57
2023-02-21T06:31:00.405Z,9.61
2023-02-21T06:32:03.752Z,9.58
2023-02-21T06:33:07.219Z,9.61
2023-02-21T06:34:10.337Z,9.63
2023-02-21T06:35:13.704Z,9.64
2023-02-21T06:36:23.301Z,9.69
2023-02-21T06:37:26.551Z,9.68
2023-02-21T06:38:29.664Z,9.68
2023-02-21T06:39:32.789Z,9.61
2023-02-21T06:40:35.552Z,9.53
2023-02-21T06:41:38.559Z,9.57
2023-02-21T06:42:41.193Z,9.59
2023-02-21T06:43:44.200Z,9.60
2023-02-21T06:44:49.837Z,9.49
2023-02-21T06:45:52.535Z,9.40
2023-02-21T06:46:55.483Z,9.43
2023-02-21T06:47:58.246Z,9.43
2023-02-21T06:49:00.894Z,9.52
2023-02-21T06:50:04.253Z,9.56
2023-02-21T06:51:11.341Z,9.49
2023-02-21T06:52:14.577Z,9.46
2023-02-21T06:53:17.381Z,9.47
2023-02-21T06:54:20.384Z,9.43
2023-02-21T06:55:25.478Z,9.45
2023-02-21T06:56:28.918Z,9.48
2023-02-21T06:57:31.425Z,9.49
2023-02-21T06:58:34.187Z,9.42
2023-02-21T06:59:36.827Z,9.42
2023-02-21T07:00:39.671Z,9.45
2023-02-21T07:01:42.381Z,9.47
2023-02-21T07:02:44.948Z,9.44
2023-02-21T07:03:47.990Z,9.48
2023-02-21T07:04:50.614Z,9.49
2023-02-21T07:05:53.639Z,9.52
2023-02-21T07:06:56.273Z,9.56
2023-02-21T07:07:58.791Z,9.57
2023-02-21T07:09:01.319Z,9.73
2023-02-21T07:10:04.188Z,9.72
2023-02-21T07:11:07.070Z,9.74
2023-02-21T07:12:09.596Z,9.76
2023-02-21T07:13:12.113Z,9.76
2023-02-21T07:14:15.204Z,9.67
2023-02-21T07:15:17.877Z,9.64
2023-02-21T07:16:21.129Z,9.66
2023-02-21T07:17:23.880Z,9.68
2023-02-21T07:18:26.771Z,9.65
2023-02-21T07:19:29.643Z,9.61
2023-02-21T07:20:33.730Z,9.57
2023-02-21T07:22:38.996Z,9.60
2023-02-21T07:23:43.557Z,9.58
2023-02-21T07:24:46.558Z,9.59
2023-02-21T07:25:49.713Z,9.66
2023-02-21T07:26:52.327Z,9.75
2023-02-21T07:27:54.961Z,9.73
2023-02-21T07:28:57.492Z,9.71
2023-02-21T07:30:00.143Z,9.76
2023-02-21T07:31:02.832Z,9.74
2023-02-21T07:32:05.437Z,9.74
2023-02-21T07:33:07.918Z,9.72
2023-02-21T07:34:12.367Z,9.71
2023-02-21T07:35:14.888Z,9.75
2023-02-21T07:36:17.527Z,9.78
2023-02-21T07:37:20.047Z,9.76
2023-02-21T07:38:28.238Z,9.80
2023-02-21T07:39:30.727Z,9.75
2023-02-21T07:40:33.252Z,9.79
2023-02-21T07:41:35.771Z,9.75
2023-02-21T07:42:43.847Z,9.76
2023-02-21T07:43:46.335Z,9.74
2023-02-21T07:44:48.981Z,9.73
2023-02-21T07:45:51.496Z,9.73
2023-02-21T07:46:56.782Z,9.75
2023-02-21T07:47:59.430Z,9.72
2023-02-21T07:49:02.064Z,9.77
2023-02-21T07:50:05.664Z,9.74
2023-02-21T07:51:09.036Z,9.74
2023-02-21T07:52:11.546Z,9.74
2023-02-21T07:53:15.756Z,9.62
2023-02-21T07:54:18.883Z,9.63
2023-02-21T07:55:21.875Z,9.61
2023-02-21T07:56:24.519Z,9.59
2023-02-21T07:57:27.279Z,9.65
2023-02-21T07:58:30.046Z,9.62
2023-02-21T07:59:33.168Z,9.75
2023-02-21T08:00:36.844Z,9.80
2023-02-21T08:01:42.683Z,9.73
2023-02-21T08:02:51.790Z,9.70
2023-02-21T08:03:54.647Z,9.67
2023-02-21T08:04:57.827Z,9.62
2023-02-21T08:06:00.890Z,9.71
2023-02-21T08:07:05.455Z,9.75
2023-02-21T08:08:09.779Z,9.72
2023-02-21T08:09:12.904Z,9.71
2023-02-21T08:10:22.138Z,9.69
2023-02-21T08:11:25.264Z,9.66
2023-02-21T08:12:28.497Z,9.63
2023-02-21T08:13:31.622Z,9.68
2023-02-21T08:14:34.991Z,9.71
2023-02-21T08:15:38.104Z,9.67
2023-02-21T08:16:41.229Z,9.70
2023-02-21T08:17:44.708Z,9.67
2023-02-21T08:18:51.087Z,9.75
2023-02-21T08:19:54.339Z,9.69
2023-02-21T08:20:57.821Z,9.72
2023-02-21T08:22:02.485Z,9.75
2023-02-21T08:23:05.710Z,9.76
2023-02-21T08:24:10.634Z,9.68
2023-02-21T08:25:15.917Z,9.72
2023-02-21T08:26:19.041Z,9.79
2023-02-21T08:27:22.165Z,9.76
2023-02-21T08:28:25.280Z,9.77
2023-02-21T08:29:29.366Z,9.77
2023-02-21T08:30:32.512Z,9.76
2023-02-21T08:31:37.319Z,9.72
2023-02-21T08:32:40.647Z,9.78
2023-02-21T08:33:44.732Z,9.83
2023-02-21T08:34:49.654Z,9.81
2023-02-21T08:35:52.894Z,9.79
2023-02-21T08:36:57.213Z,9.78
2023-02-21T08:38:03.575Z,9.84
2023-02-21T08:39:08.139Z,9.84
2023-02-21T08:40:12.098Z,9.83
2023-02-21T08:41:16.537Z,9.86
2023-02-21T08:42:20.982Z,9.90
2023-02-21T08:43:25.069Z,9.87
2023-02-21T08:44:28.069Z,9.87
2023-02-21T08:45:30.829Z,9.92
2023-02-21T08:46:34.337Z,9.97
2023-02-21T08:47:38.046Z,9.91
2023-02-21T08:48:40.608Z,9.91
2023-02-21T08:49:48.480Z,9.95
2023-02-21T08:50:53.877Z,9.94
2023-02-21T08:51:56.521Z,9.91
2023-02-21T08:52:59.454Z,9.88
2023-02-21T08:54:03.845Z,9.92
2023-02-21T08:55:07.568Z,9.88
2023-02-21T08:56:11.418Z,9.92
2023-02-21T08:57:14.097Z,9.94
2023-02-21T08:58:16.616Z,9.95
2023-02-21T08:59:19.308Z,9.91
2023-02-21T09:00:24.157Z,10.00
2023-02-21T09:01:35.099Z,10.05
2023-02-21T09:02:41.181Z,10.13
2023-02-21T09:03:43.580Z,10.09
2023-02-21T09:04:46.860Z,10.13
2023-02-21T09:05:49.343Z,10.12
2023-02-21T09:06:51.901Z,10.14
2023-02-21T09:07:58.901Z,10.16
2023-02-21T09:09:01.591Z,10.23
2023-02-21T09:10:04.986Z,10.18
2023-02-21T09:11:08.367Z,10.15
2023-02-21T09:12:11.225Z,10.20
2023-02-21T09:13:14.126Z,10.16
2023-02-21T09:14:17.339Z,10.21
2023-02-21T09:15:19.885Z,10.25
2023-02-21T09:16:23.051Z,10.22
2023-02-21T09:17:25.761Z,10.20
2023-02-21T09:18:29.832Z,10.24
2023-02-21T09:19:32.476Z,10.14
2023-02-21T09:20:35.115Z,10.15
2023-02-21T09:21:45.436Z,10.16
2023-02-21T09:22:48.077Z,10.17
2023-02-21T09:23:54.222Z,10.18
2023-02-21T09:24:57.218Z,10.20
2023-02-21T09:25:59.721Z,10.23
2023-02-21T09:27:03.325Z,10.35
2023-02-21T09:28:05.966Z,10.36
2023-02-21T09:29:08.601Z,10.33
2023-02-21T09:30:16.924Z,10.31
2023-02-21T09:31:20.430Z,10.26
2023-02-21T09:32:23.166Z,10.27
2023-02-21T09:33:25.886Z,10.28
2023-02-21T09:34:29.248Z,10.35
2023-02-21T09:35:31.887Z,10.37
2023-02-21T09:36:36.578Z,10.39
2023-02-21T09:37:43.065Z,10.39
2023-02-21T09:38:46.165Z,10.34
2023-02-21T09:39:48.686Z,10.37
2023-02-21T09:40:59.849Z,10.48
2023-02-21T09:42:02.371Z,10.45
2023-02-21T09:43:11.851Z,10.55
2023-02-21T09:44:19.171Z,10.47
2023-02-21T09:45:22.532Z,10.44
2023-02-21T09:46:39.452Z,10.46
2023-02-21T09:47:43.777Z,10.49
2023-02-21T09:48:46.779Z,10.52
2023-02-21T09:49:56.263Z,10.55
2023-02-21T09:51:02.502Z,10.50
2023-02-21T09:52:06.463Z,10.56
2023-02-21T09:53:11.993Z,10.61
2023-02-21T09:54:25.202Z,10.58
2023-02-21T09:55:38.155Z,10.66
2023-02-21T09:56:41.280Z,10.74
2023-02-21T09:57:43.791Z,10.74
2023-02-21T09:58:47.269Z,10.76
2023-02-21T09:59:49.934Z,10.80
2023-02-21T10:00:52.885Z,10.77
2023-02-21T10:01:58.558Z,10.82
2023-02-21T10:03:12.238Z,10.81
2023-02-21T10:04:52.869Z,10.76
2023-02-21T10:06:21.241Z,10.75
2023-02-21T10:07:42.373Z,10.75
2023-02-21T10:08:54.169Z,10.64
2023-02-21T10:10:05.890Z,10.65
2023-02-21T10:11:28.336Z,10.64
2023-02-21T10:12:41.535Z,10.64
2023-02-21T10:14:04.933Z,10.70
2023-02-21T10:15:39.017Z,10.69
2023-02-21T10:16:56.788Z,10.64
2023-02-21T10:18:33.934Z,10.70
2023-02-21T10:19:41.782Z,10.79
2023-02-21T10:20:59.787Z,10.87
2023-02-21T10:22:15.145Z,10.77
2023-02-21T10:23:25.227Z,10.72
2023-02-21T10:24:29.430Z,10.67
2023-02-21T10:25:34.352Z,10.79
2023-02-21T10:26:42.875Z,10.77
2023-02-21T10:27:46.016Z,10.85
2023-02-21T10:28:50.682Z,10.78
2023-02-21T10:29:59.442Z,10.90
2023-02-21T10:31:13.149Z,11.00
2023-02-21T10:32:16.523Z,10.97
2023-02-21T10:33:19.725Z,10.85
2023-02-21T10:34:28.496Z,10.81
2023-02-21T10:35:31.726Z,10.75
2023-02-21T10:36:35.995Z,10.83
2023-02-21T10:37:49.139Z,10.84
2023-02-21T10:39:15.654Z,10.90
2023-02-21T10:40:39.059Z,11.03
2023-02-21T10:41:43.259Z,11.00
2023-02-21T10:42:51.664Z,11.02
2023-02-21T10:44:02.350Z,11.00
2023-02-21T10:45:07.744Z,10.96
2023-02-21T10:46:37.265Z,10.94
2023-02-21T10:47:51.188Z,10.83
2023-02-21T10:48:59.951Z,10.91
2023-02-21T10:50:07.407Z,10.94
2023-02-21T10:51:16.690Z,10.97
2023-02-21T10:52:22.633Z,11.03
2023-02-21T10:53:27.079Z,10.98
2023-02-21T10:54:29.599Z,11.04
2023-02-21T10:55:33.645Z,11.06
2023-02-21T10:56:39.170Z,11.14
2023-02-21T10:57:47.605Z,11.11
2023-02-21T10:58:56.655Z,11.19
2023-02-21T11:00:00.023Z,11.05
2023-02-21T11:01:26.847Z,11.12
2023-02-21T11:02:35.471Z,11.12
2023-02-21T11:03:47.383Z,11.01
2023-02-21T11:04:51.740Z,11.02
2023-02-21T11:05:58.082Z,11.04
2023-02-21T11:07:01.953Z,11.00
2023-02-21T11:08:12.383Z,11.08
2023-02-21T11:09:47.305Z,11.17
2023-02-21T11:10:55.499Z,11.30
2023-02-21T11:12:03.152Z,11.33
2023-02-21T11:13:12.870Z,11.30
2023-02-21T11:14:18.512Z,11.38
2023-02-21T11:15:21.154Z,11.25
2023-02-21T11:16:24.765Z,11.17
2023-02-21T11:17:35.087Z,11.21
2023-02-21T11:18:39.291Z,11.28
2023-02-21T11:19:58.442Z,11.34
2023-02-21T11:21:18.509Z,11.27
2023-02-21T11:22:39.511Z,11.41
2023-02-21T11:23:49.497Z,11.39
2023-02-21T11:24:58.716Z,11.54
2023-02-21T11:26:09.526Z,11.45
2023-02-21T11:27:12.757Z,11.47
2023-02-21T11:28:15.155Z,11.30
2023-02-21T11:29:23.196Z,11.33
2023-02-21T11:30:26.228Z,11.23
2023-02-21T11:31:33.130Z,11.36
2023-02-21T11:32:39.049Z,11.30
2023-02-21T11:33:56.926Z,11.41
2023-02-21T11:35:05.918Z,11.35
2023-02-21T11:36:18.171Z,11.39
2023-02-21T11:37:20.687Z,11.42
2023-02-21T11:38:37.734Z,11.41
2023-02-21T11:39:41.578Z,11.30
2023-02-21T11:40:49.490Z,11.36
2023-02-21T11:41:54.529Z,11.52
2023-02-21T11:43:21.051Z,11.47
2023-02-21T11:44:34.146Z,11.47
2023-02-21T11:45:40.986Z,11.42
2023-02-21T11:46:48.170Z,11.31
2023-02-21T11:48:05.101Z,11.23
2023-02-21T11:49:28.875Z,11.37
2023-02-21T11:50:39.676Z,11.45
2023-02-21T11:51:54.078Z,11.57
2023-02-21T11:53:17.581Z,11.52
2023-02-21T11:54:25.264Z,11.63
2023-02-21T11:55:28.393Z,11.69
2023-02-21T11:56:46.985Z,11.84
2023-02-21T11:57:52.518Z,11.95
2023-02-21T11:59:03.436Z,12.08
2023-02-21T12:00:12.430Z,12.11
2023-02-21T12:01:38.592Z,12.03
2023-02-21T12:03:01.543Z,11.84
2023-02-21T12:04:16.195Z,11.83
2023-02-21T12:05:31.217Z,12.04
2023-02-21T12:06:52.406Z,11.88
2023-02-21T12:08:16.521Z,12.00
2023-02-21T12:09:31.163Z,12.20
2023-02-21T12:11:01.766Z,12.30
2023-02-21T12:12:23.847Z,12.51
2023-02-21T12:13:32.732Z,12.48
2023-02-21T12:14:47.731Z,12.54
2023-02-21T12:15:59.779Z,12.67
2023-02-21T12:17:21.819Z,12.39
2023-02-21T12:18:43.416Z,12.33
2023-02-21T12:19:46.664Z,12.32
2023-02-21T12:21:04.663Z,12.48
2023-02-21T12:22:26.051Z,12.55
2023-02-21T12:23:47.984Z,12.51
2023-02-21T12:25:03.718Z,12.60
2023-02-21T12:26:30.474Z,12.54
2023-02-21T12:27:54.113Z,12.59
2023-02-21T12:29:17.996Z,12.63
2023-02-21T12:30:28.233Z,12.42
2023-02-21T12:31:59.199Z,12.47
2023-02-21T12:33:05.163Z,12.37
2023-02-21T12:34:13.808Z,12.27
2023-02-21T12:35:28.723Z,12.20
2023-02-21T12:37:03.139Z,12.41
2023-02-21T12:38:14.541Z,12.43
2023-02-21T12:39:29.780Z,12.54
2023-02-21T12:40:57.142Z,12.45
2023-02-21T12:42:18.858Z,12.54
2023-02-21T12:43:43.121Z,12.37
2023-02-21T12:44:55.110Z,12.29
2023-02-21T12:46:04.280Z,12.14
2023-02-21T12:47:49.593Z,12.17
2023-02-21T12:49:03.276Z,12.10
2023-02-21T12:50:14.215Z,12.07
2023-02-21T12:51:22.737Z,12.01
2023-02-21T12:52:32.802Z,11.89
2023-02-21T12:53:43.724Z,11.85
2023-02-21T12:54:59.331Z,11.88
2023-02-21T12:56:27.779Z,11.97
2023-02-21T12:57:44.739Z,11.89
2023-02-21T12:59:14.501Z,11.86
2023-02-21T13:00:22.755Z,11.88
2023-02-21T13:01:40.432Z,12.00
2023-02-21T13:03:10.474Z,11.89
2023-02-21T13:04:24.583Z,11.93
2023-02-21T13:05:52.664Z,11.94
2023-02-21T13:07:01.067Z,11.81
2023-02-21T13:08:26.508Z,11.80
2023-02-21T13:09:45.474Z,11.83
2023-02-21T13:11:10.146Z,11.83
2023-02-21T13:12:30.710Z,11.79
2023-02-21T13:13:34.157Z,11.92
2023-02-21T13:14:49.076Z,12.03
2023-02-21T13:15:54.320Z,11.96
2023-02-21T13:16:57.119Z,11.98
2023-02-21T13:18:29.254Z,11.95
2023-02-21T13:19:44.997Z,11.89
2023-02-21T13:21:03.112Z,11.83
2023-02-21T13:22:48.640Z,11.76
2023-02-21T13:24:30.123Z,11.83
2023-02-21T13:25:59.170Z,11.77
2023-02-21T13:27:32.546Z,11.80
2023-02-21T13:28:36.835Z,11.73
2023-02-21T13:29:42.727Z,11.77
2023-02-21T13:30:50.721Z,11.89
2023-02-21T13:32:08.985Z,11.93
2023-02-21T13:33:25.798Z,11.91
2023-02-21T13:34:37.322Z,11.93
2023-02-21T13:35:41.038Z,12.04
2023-02-21T13:36:46.924Z,12.00
2023-02-21T13:37:52.562Z,12.14
2023-02-21T13:39:32.131Z,12.22
2023-02-21T13:40:47.767Z,12.17
2023-02-21T13:41:55.938Z,12.29
2023-02-21T13:43:06.373Z,12.27
2023-02-21T13:44:13.926Z,12.17
2023-02-21T13:45:23.529Z,12.06
2023-02-21T13:46:31.737Z,11.99
2023-02-21T13:48:00.207Z,12.09
2023-02-21T13:49:39.861Z,11.96
2023-02-21T13:50:50.775Z,11.98
2023-02-21T13:51:56.188Z,12.19
2023-02-21T13:53:34.153Z,12.49
2023-02-21T13:55:11.738Z,12.51
2023-02-21T13:56:16.824Z,12.48
2023-02-21T13:57:33.865Z,12.55
2023-02-21T13:58:41.068Z,12.46
2023-02-21T13:59:43.598Z,12.42
2023-02-21T14:00:48.174Z,12.46
2023-02-21T14:01:51.156Z,12.40
2023-02-21T14:03:01.496Z,12.53
2023-02-21T14:04:42.519Z,12.61
2023-02-21T14:05:50.941Z,12.62
2023-02-21T14:06:57.405Z,12.82
2023-02-21T14:08:12.520Z,12.78
2023-02-21T14:09:18.524Z,12.83
2023-02-21T14:10:26.692Z,12.79
2023-02-21T14:11:36.166Z,12.79
2023-02-21T14:12:43.370Z,12.74
2023-02-21T14:13:53.949Z,12.50
2023-02-21T14:15:06.938Z,12.31
2023-02-21T14:16:15.722Z,12.54
2023-02-21T14:17:29.345Z,12.72
2023-02-21T14:18:39.684Z,12.74
2023-02-21T14:19:51.537Z,12.69
2023-02-21T14:20:56.111Z,12.50
2023-02-21T14:22:20.588Z,12.47
2023-02-21T14:23:41.465Z,12.51
2023-02-21T14:24:48.786Z,12.41
2023-02-21T14:26:01.528Z,12.56
2023-02-21T14:27:24.552Z,12.52
2023-02-21T14:28:58.274Z,12.52
2023-02-21T14:30:01.474Z,12.38
2023-02-21T14:31:04.895Z,12.37
2023-02-21T14:32:10.987Z,12.31
2023-02-21T14:33:25.762Z,12.34
2023-02-21T14:34:39.926Z,12.43
2023-02-21T14:35:59.849Z,12.64
2023-02-21T14:37:12.449Z,12.52
2023-02-21T14:38:25.053Z,12.42
2023-02-21T14:39:41.255Z,12.52
2023-02-21T14:40:55.416Z,12.61
2023-02-21T14:42:12.818Z,12.61
2023-02-21T14:43:25.058Z,12.61
2023-02-21T14:44:41.379Z,12.54
2023-02-21T14:46:15.945Z,12.20
2023-02-21T14:47:36.945Z,12.06
2023-02-21T14:48:42.946Z,12.13
2023-02-21T14:50:04.235Z,12.06
2023-02-21T14:51:45.479Z,12.24
2023-02-21T14:52:51.116Z,12.01
2023-02-21T14:54:28.800Z,12.39
2023-02-21T14:55:54.242Z,12.55
2023-02-21T14:57:08.667Z,12.12
2023-02-21T14:58:46.497Z,11.92
2023-02-21T14:59:52.023Z,11.89
2023-02-21T15:01:25.818Z,11.98
2023-02-21T15:02:39.974Z,11.98
2023-02-21T15:03:49.095Z,11.96
2023-02-21T15:05:06.185Z,11.85
2023-02-21T15:06:14.224Z,11.99
2023-02-21T15:07:40.629Z,11.99
2023-02-21T15:08:46.099Z,12.00
2023-02-21T15:10:11.466Z,12.03
2023-02-21T15:11:36.541Z,12.06
2023-02-21T15:13:05.464Z,11.90
2023-02-21T15:14:23.271Z,11.88
2023-02-21T15:15:41.586Z,11.84
2023-02-21T15:16:46.833Z,11.90
2023-02-21T15:18:07.627Z,11.95
2023-02-21T15:19:25.518Z,11.87
2023-02-21T15:20:30.321Z,11.75
2023-02-21T15:21:33.069Z,11.77
2023-02-21T15:22:35.710Z,11.71
2023-02-21T15:23:40.390Z,11.82
2023-02-21T15:25:16.872Z,11.81
2023-02-21T15:26:27.433Z,11.70
2023-02-21T15:27:30.079Z,11.76
2023-02-21T15:28:33.433Z,11.75
2023-02-21T15:29:36.080Z,11.78
2023-02-21T15:30:42.559Z,11.92
2023-02-21T15:31:57.346Z,11.91